Time;durP1;ratioP1;P1;durP2;ratioP2;P2;SDS_P1;SDS_P2;PMS_P1;PMS_P2;Temp;Humidity;BMP_temperature;BMP_pressure;BME280_temperature;BME280_humidity;BME280_pressure;Samples;Min_cycle;Max_cycle;Signal;HPM_P1;HPM_P2
2022/09/16 00:01:20;;;;;;;1.27;0.98;;;;;;;15.57;31.25;98534.63;5072185;28;20052;-79
2022/09/16 00:03:47;;;;;;;11.45;1.27;;;;;;;15.65;31.35;98546.28;5072039;28;20048;-80
2022/09/16 00:06:25;;;;;;;5.22;1.25;;;;;;;15.69;31.31;98552.16;5072024;28;20047;-78
2022/09/16 00:08:54;;;;;;;7.28;4.30;;;;;;;15.68;31.61;98545.94;5073656;28;20414;-79
2022/09/16 00:11:20;;;;;;;3.50;1.63;;;;;;;15.71;31.34;98545.56;5071683;28;20389;-78
2022/09/16 00:13:46;;;;;;;4.28;1.67;;;;;;;15.75;31.43;98544.19;5055261;28;20094;-78
2022/09/16 00:16:18;;;;;;;5.95;1.20;;;;;;;15.77;31.26;98547.56;5038530;28;20070;-78
2022/09/16 00:18:44;;;;;;;5.60;1.40;;;;;;;15.76;31.46;98548.59;5073174;28;20048;-76
2022/09/16 00:21:10;;;;;;;8.25;1.55;;;;;;;15.77;31.51;98550.25;5072992;28;20052;-77
2022/09/16 00:23:36;;;;;;;2.83;1.60;;;;;;;15.84;31.65;98550.41;5073246;28;20105;-76
2022/09/16 00:26:03;;;;;;;2.60;1.00;;;;;;;15.83;31.46;98553.25;5072161;28;20119;-79
2022/09/16 00:28:29;;;;;;;1.88;0.93;;;;;;;15.80;31.25;98554.47;5055264;28;20052;-76
2022/09/16 00:31:00;;;;;;;3.40;1.08;;;;;;;15.83;31.65;98553.25;5071787;28;20148;-76
2022/09/16 00:33:26;;;;;;;6.95;4.90;;;;;;;15.75;31.49;98556.81;5073959;28;20051;-75
2022/09/16 00:35:53;;;;;;;2.97;0.98;;;;;;;15.80;31.33;98554.47;5072047;28;20037;-81
2022/09/16 00:38:19;;;;;;;8.68;1.10;;;;;;;15.75;31.66;98552.28;5056670;28;20379;-79
2022/09/16 00:40:48;;;;;;;1.27;0.90;;;;;;;15.75;31.98;98562.22;5059880;28;20047;-81
2022/09/16 00:43:16;;;;;;;2.25;1.00;;;;;;;15.75;31.45;98552.28;5081254;28;20064;-79
2022/09/16 00:45:48;;;;;;;2.92;0.90;;;;;;;15.86;31.30;98556.44;5045467;28;20040;-81
2022/09/16 00:48:23;;;;;;;1.58;1.33;;;;;;;15.92;31.55;98563.00;5059550;28;20491;-81
2022/09/16 00:50:53;;;;;;;4.68;1.15;;;;;;;15.82;32.29;98562.34;5077117;28;20094;-90
2022/09/16 00:53:28;;;;;;;9.07;1.55;;;;;;;15.85;31.96;98560.16;5060055;28;20052;-81
2022/09/16 00:55:59;;;;;;;3.25;1.27;;;;;;;15.93;31.73;98570.91;5059846;28;20044;-79
2022/09/16 00:58:55;;;;;;;1.08;0.90;;;;;;;15.88;31.83;98557.13;5059694;28;20040;-79
2022/09/16 01:01:21;;;;;;;7.18;1.33;;;;;;;15.87;31.82;98554.56;5075418;28;20048;-81
2022/09/16 01:03:53;;;;;;;4.43;1.13;;;;;;;15.93;32.14;98570.06;5058719;28;20036;-78
2022/09/16 01:06:20;;;;;;;2.08;0.93;;;;;;;15.91;31.97;98561.28;5075727;28;20051;-79
2022/09/16 01:08:49;;;;;;;7.32;1.20;;;;;;;15.85;31.95;98559.31;5058808;28;20036;-82
2022/09/16 01:11:15;;;;;;;3.20;1.20;;;;;;;15.85;32.11;98562.00;5059359;28;20048;-84
2022/09/16 01:13:42;;;;;;;4.20;1.02;;;;;;;15.86;32.08;98550.22;5077079;28;20040;-80
2022/09/16 01:16:18;;;;;;;3.78;0.90;;;;;;;15.86;32.23;98563.69;5058929;28;20426;-80
2022/09/16 01:19:08;;;;;;;4.63;1.05;;;;;;;15.75;32.84;98571.13;5076656;28;20087;-81
2022/09/16 01:21:41;;;;;;;8.35;1.20;;;;;;;15.73;32.75;98564.25;5075169;28;20051;-78
2022/09/16 01:24:34;;;;;;;0.98;0.93;;;;;;;15.68;32.72;98572.88;5058369;28;20044;-80
2022/09/16 01:27:40;;;;;;;2.90;0.95;;;;;;;15.69;32.38;98569.16;5077114;28;20045;-81
2022/09/16 01:30:16;;;;;;;3.22;1.30;;;;;;;15.64;32.51;98560.69;5082760;28;21134;-78
2022/09/16 01:33:07;;;;;;;3.33;1.05;;;;;;;15.68;32.41;98570.19;5071538;28;20094;-76
2022/09/16 01:35:59;;;;;;;3.40;1.20;;;;;;;15.68;32.87;98578.25;5058763;28;20478;-79
2022/09/16 01:38:37;;;;;;;3.95;1.10;;;;;;;15.69;32.54;98579.94;5096082;28;20067;-78
2022/09/16 01:41:33;;;;;;;2.40;1.08;;;;;;;15.70;32.97;98586.16;5094885;28;20062;-78
2022/09/16 01:44:18;;;;;;;1.23;0.88;;;;;;;15.72;32.69;98582.28;5095982;28;20051;-79
2022/09/16 01:46:50;;;;;;;4.43;1.92;;;;;;;15.69;32.65;98581.78;5061339;28;20032;-78
2022/09/16 01:49:31;;;;;;;4.10;1.10;;;;;;;15.62;32.80;98561.91;5061552;28;20132;-79
2022/09/16 01:52:35;;;;;;;4.78;1.63;;;;;;;15.63;32.81;98575.19;5095199;28;20101;-77
2022/09/16 01:55:05;;;;;;;7.90;1.35;;;;;;;15.53;32.92;98563.78;5093761;28;20097;-77
2022/09/16 01:57:56;;;;;;;14.23;2.45;;;;;;;15.61;33.19;98582.63;5077107;28;20495;-78
2022/09/16 02:00:22;;;;;;;9.05;2.10;;;;;;;15.58;32.60;98587.53;5096323;28;20109;-78
2022/09/16 02:02:57;;;;;;;7.57;2.58;;;;;;;15.47;32.79;98584.19;5095690;28;20090;-78
2022/09/16 02:05:27;;;;;;;11.88;2.20;;;;;;;15.52;33.03;98597.94;5077377;28;20052;-79
2022/09/16 02:08:01;;;;;;;11.38;2.83;;;;;;;15.46;33.20;98600.53;5095437;28;20536;-77
2022/09/16 02:10:37;;;;;;;7.55;1.83;;;;;;;15.47;33.13;98597.63;5077798;28;20040;-78
2022/09/16 02:13:11;;;;;;;1.75;1.13;;;;;;;15.38;33.07;98601.34;5095462;28;20130;-78
2022/09/16 02:15:41;;;;;;;4.55;1.20;;;;;;;15.40;33.28;98598.50;5077358;28;20044;-77
2022/09/16 02:18:14;;;;;;;9.35;1.33;;;;;;;15.45;33.17;98588.88;5077548;28;20071;-77
2022/09/16 02:20:43;;;;;;;5.35;1.25;;;;;;;15.46;33.08;98601.34;5077868;28;20437;-78
2022/09/16 02:23:13;;;;;;;;;;;;;;;15.50;33.33;98591.06;5094620;28;20056;-77
2022/09/16 02:25:43;;;;;;;14.32;1.30;;;;;;;15.46;33.37;98603.22;5084920;28;20018;-79
2022/09/16 02:28:15;;;;;;;8.48;1.50;;;;;;;15.39;33.44;98605.75;5093980;28;20515;-77
2022/09/16 02:30:44;;;;;;;5.72;1.52;;;;;;;15.43;33.86;98612.47;5093849;28;20040;-78
2022/09/16 02:33:13;;;;;;;5.25;1.33;;;;;;;15.44;33.63;98610.59;5082367;28;20063;-80
2022/09/16 02:35:40;;;;;;;11.73;1.65;;;;;;;15.52;33.73;98614.13;5056735;28;20044;-78
2022/09/16 02:38:13;;;;;;;3.42;1.40;;;;;;;15.52;33.50;98610.59;5056571;28;20085;-78
2022/09/16 02:41:13;;;;;;;6.18;1.33;;;;;;;15.56;33.27;98614.63;5074576;28;20040;-79
2022/09/16 02:43:42;;;;;;;5.15;1.45;;;;;;;15.55;33.24;98621.03;5074431;28;20060;-79
2022/09/16 02:46:21;;;;;;;10.95;2.03;;;;;;;15.49;33.34;98610.91;5074523;28;20040;-77
2022/09/16 02:49:17;;;;;;;22.25;2.42;;;;;;;15.53;33.32;98636.50;5074380;28;20048;-78
2022/09/16 02:52:06;;;;;;;15.02;2.42;;;;;;;15.53;33.11;98633.81;5072812;28;20115;-78
2022/09/16 02:54:39;;;;;;;8.45;1.90;;;;;;;15.48;33.29;98625.41;5074709;28;20075;-77
2022/09/16 02:57:06;;;;;;;11.05;2.85;;;;;;;15.47;33.09;98635.34;5066862;28;20044;-79
2022/09/16 02:59:32;;;;;;;19.13;2.55;;;;;;;15.49;32.70;98644.09;5093026;28;20457;-78
2022/09/16 03:02:00;;;;;;;6.25;1.73;;;;;;;15.38;32.41;98622.06;5094135;28;20047;-78
2022/09/16 03:04:27;;;;;;;6.80;2.13;;;;;;;15.50;32.29;98650.34;5093132;28;20040;-77
2022/09/16 03:06:53;;;;;;;8.15;2.28;;;;;;;15.38;32.16;98630.13;5075814;28;20055;-78
2022/09/16 03:09:22;;;;;;;7.25;2.40;;;;;;;15.47;32.07;98645.28;5059297;28;20387;-79
2022/09/16 03:12:04;;;;;;;7.97;2.08;;;;;;;15.54;31.96;98643.59;5093896;28;20131;-78
2022/09/16 03:14:55;;;;;;;14.10;2.47;;;;;;;15.55;32.10;98647.97;5092770;28;20046;-78
2022/09/16 03:17:59;;;;;;;26.83;2.70;;;;;;;15.57;32.08;98643.25;5093144;28;20135;-77
2022/09/16 03:20:45;;;;;;;8.00;2.47;;;;;;;15.62;31.90;98654.34;5093772;28;20185;-79
2022/09/16 03:23:43;;;;;;;17.45;2.78;;;;;;;15.51;32.16;98652.00;5072405;28;20407;-77
2022/09/16 03:26:18;;;;;;;15.77;2.47;;;;;;;15.55;32.45;98658.72;5073867;28;20102;-78
2022/09/16 03:29:16;;;;;;;14.73;1.85;;;;;;;15.47;32.48;98667.66;5039200;28;20475;-77
2022/09/16 03:31:54;;;;;;;6.68;2.33;;;;;;;15.39;32.94;98654.22;5073147;28;20075;-79
2022/09/16 03:34:34;;;;;;;10.93;2.15;;;;;;;15.51;32.64;98662.78;5055937;28;20040;-79
2022/09/16 03:37:10;;;;;;;15.15;2.20;;;;;;;15.60;33.23;98677.91;5055586;28;20041;-78
2022/09/16 03:39:37;;;;;;;8.65;2.15;;;;;;;15.48;33.41;98671.19;5055403;28;20499;-78
2022/09/16 03:42:07;;;;;;;8.88;2.22;;;;;;;15.44;33.61;98669.84;5072231;28;20055;-78
2022/09/16 03:44:34;;;;;;;13.93;2.15;;;;;;;15.34;33.43;98666.50;5055325;28;20041;-78
2022/09/16 03:47:02;;;;;;;17.83;2.55;;;;;;;15.51;33.58;98681.63;5071925;28;20052;-78
2022/09/16 03:49:31;;;;;;;9.18;2.65;;;;;;;15.38;33.41;98668.66;5055317;28;20044;-78
2022/09/16 03:51:58;;;;;;;10.50;2.88;;;;;;;15.41;33.88;98683.66;5055365;28;20170;-79
2022/09/16 03:54:24;;;;;;;11.82;2.42;;;;;;;15.46;33.67;98687.53;5071944;28;20514;-78
2022/09/16 03:56:50;;;;;;;8.25;2.47;;;;;;;15.57;33.53;98683.66;5071915;28;20048;-79
2022/09/16 03:59:16;;;;;;;12.25;2.45;;;;;;;15.66;33.60;98688.03;5071875;28;20139;-81
2022/09/16 04:01:42;;;;;;;9.05;2.10;;;;;;;15.73;33.65;98683.66;5054647;28;20047;-78
2022/09/16 04:04:11;;;;;;;10.43;2.35;;;;;;;15.72;33.68;98681.09;5071695;28;20064;-79
2022/09/16 04:06:37;;;;;;;5.95;2.00;;;;;;;15.77;33.20;98667.97;5054003;28;20064;-78
2022/09/16 04:09:06;;;;;;;12.32;2.60;;;;;;;15.67;33.13;98661.94;5071626;28;20545;-79
2022/09/16 04:11:32;;;;;;;11.20;2.40;;;;;;;15.85;33.46;98686.81;5054654;28;20137;-79
2022/09/16 04:13:58;;;;;;;20.25;2.88;;;;;;;15.85;33.31;98678.72;5071451;28;20397;-79
2022/09/16 04:16:24;;;;;;;9.63;2.10;;;;;;;15.98;33.22;98697.03;5037970;28;20048;-80
2022/09/16 04:18:50;;;;;;;9.75;2.08;;;;;;;15.91;33.63;98690.66;5071189;28;20048;-77
2022/09/16 04:21:18;;;;;;;21.00;2.78;;;;;;;15.95;33.68;98694.72;5038793;28;20230;-78
2022/09/16 04:23:44;;;;;;;14.20;2.65;;;;;;;16.00;33.71;98679.69;5037866;28;20499;-78
2022/09/16 04:26:10;;;;;;;17.75;2.88;;;;;;;15.98;33.88;98679.06;5055196;28;20045;-78
2022/09/16 04:28:36;;;;;;;20.17;2.80;;;;;;;16.01;33.76;98689.47;5072463;28;20488;-78
2022/09/16 04:31:10;;;;;;;12.48;2.15;;;;;;;16.24;33.85;98686.84;5054709;28;20045;-79
2022/09/16 04:33:36;;;;;;;22.83;2.72;;;;;;;16.40;33.66;98698.59;5054767;28;20044;-77
2022/09/16 04:36:12;;;;;;;18.33;3.90;;;;;;;16.46;33.64;98708.66;5071556;28;20059;-78
2022/09/16 04:38:41;;;;;;;10.63;2.90;;;;;;;16.55;33.58;98713.03;5071429;28;20053;-78
2022/09/16 04:41:13;;;;;;;7.20;2.37;;;;;;;16.43;34.44;98714.41;5054622;28;20132;-78
2022/09/16 04:43:39;;;;;;;8.10;3.00;;;;;;;16.33;34.45;98705.72;5072496;28;20544;-79
2022/09/16 04:46:05;;;;;;;20.23;3.00;;;;;;;16.43;34.78;98706.31;5072349;28;20503;-78
2022/09/16 04:48:32;;;;;;;17.92;3.13;;;;;;;16.49;34.47;98717.25;5054353;28;20067;-78
2022/09/16 04:51:10;;;;;;;12.45;2.95;;;;;;;16.48;34.56;98717.44;5054384;28;20105;-79
2022/09/16 04:53:38;;;;;;;13.77;2.90;;;;;;;16.49;34.20;98717.25;5071134;28;20063;-78
2022/09/16 04:56:05;;;;;;;10.35;2.75;;;;;;;16.52;34.37;98716.06;5037920;28;20040;-79
2022/09/16 04:58:32;;;;;;;8.35;2.30;;;;;;;16.52;34.33;98716.91;5038523;28;20084;-79
2022/09/16 05:01:06;;;;;;;10.65;2.78;;;;;;;16.61;34.65;98725.78;5054606;28;20230;-79
2022/09/16 05:03:32;;;;;;;8.48;2.70;;;;;;;16.49;34.47;98721.81;5037819;28;20045;-78
2022/09/16 05:06:10;;;;;;;13.93;2.65;;;;;;;16.48;34.96;98725.53;5071232;28;20048;-77
2022/09/16 05:08:36;;;;;;;21.13;2.50;;;;;;;16.43;34.80;98706.31;5070886;28;20036;-79
2022/09/16 05:11:08;;;;;;;15.43;3.45;;;;;;;16.59;34.97;98721.63;5071244;28;20040;-80
2022/09/16 05:13:34;;;;;;;17.33;2.88;;;;;;;16.67;35.42;98722.41;5054218;28;20471;-78
2022/09/16 05:16:06;;;;;;;17.52;2.88;;;;;;;16.80;35.39;98718.31;5071893;28;20079;-77
2022/09/16 05:18:33;;;;;;;11.55;2.55;;;;;;;16.91;35.54;98709.81;5072236;28;20460;-80
2022/09/16 05:21:01;;;;;;;20.23;2.97;;;;;;;17.16;35.34;98713.19;5071071;28;20059;-79
2022/09/16 05:23:27;;;;;;;14.82;3.50;;;;;;;17.33;35.93;98716.59;5078617;28;20040;-77
2022/09/16 05:25:53;;;;;;;10.60;3.80;;;;;;;17.57;36.14;98719.09;5065735;28;20063;-79
2022/09/16 05:28:20;;;;;;;16.30;4.13;;;;;;;17.69;36.22;98714.91;5074340;28;20476;-79
2022/09/16 05:30:46;;;;;;;13.02;4.65;;;;;;;17.72;37.00;98705.63;5085475;28;20048;-81
2022/09/16 05:33:12;;;;;;;16.50;5.60;;;;;;;17.83;37.17;98704.34;5090434;28;20071;-79
2022/09/16 05:35:38;;;;;;;13.50;4.45;;;;;;;18.12;37.02;98720.56;5082320;28;20622;-78
2022/09/16 05:38:04;;;;;;;20.10;4.85;;;;;;;18.31;37.77;98718.34;5074599;28;20522;-81
2022/09/16 05:40:30;;;;;;;10.20;4.38;;;;;;;18.27;38.41;98722.44;5057756;28;20474;-81
2022/09/16 05:42:55;;;;;;;16.92;4.20;;;;;;;18.22;39.07;98727.59;5074182;28;20044;-79
2022/09/16 05:45:21;;;;;;;11.57;4.60;;;;;;;18.22;40.10;98730.28;5076003;28;20055;-80
2022/09/16 05:47:48;;;;;;;10.73;4.07;;;;;;;18.37;40.30;98718.44;5074510;28;20157;-80
2022/09/16 05:50:14;;;;;;;15.05;4.47;;;;;;;18.54;40.62;98732.63;5074357;28;20139;-77
2022/09/16 05:52:40;;;;;;;11.63;4.97;;;;;;;18.74;40.68;98718.50;5073972;28;20518;-78
2022/09/16 05:55:07;;;;;;;11.75;5.50;;;;;;;18.97;40.46;98734.59;5076959;28;20040;-79
2022/09/16 05:57:33;;;;;;;10.82;4.38;;;;;;;19.14;40.13;98730.59;5077153;28;20500;-77
2022/09/16 05:59:59;;;;;;;15.18;4.53;;;;;;;19.21;39.75;98731.50;5057227;28;20579;-79
2022/09/16 06:02:25;;;;;;;12.65;4.60;;;;;;;19.44;39.49;98730.47;5074136;28;20056;-80
2022/09/16 06:04:52;;;;;;;12.60;4.68;;;;;;;19.54;39.91;98726.41;5040596;28;20051;-80
2022/09/16 06:07:18;;;;;;;13.18;3.72;;;;;;;19.62;41.20;98745.28;5075695;28;20068;-86
2022/09/16 06:09:44;;;;;;;10.60;4.15;;;;;;;19.89;39.26;98740.06;5058920;28;20415;-80
2022/09/16 06:12:09;;;;;;;9.65;4.60;;;;;;;20.08;39.64;98728.53;5057644;28;20040;-78
2022/09/16 06:14:35;;;;;;;16.80;5.05;;;;;;;20.38;38.35;98739.13;5074172;28;20040;-80
2022/09/16 06:17:02;;;;;;;9.70;4.78;;;;;;;20.61;38.31;98736.13;5075016;28;20492;-76
2022/09/16 06:19:28;;;;;;;11.85;4.57;;;;;;;20.71;38.51;98724.91;5073409;28;20060;-75
2022/09/16 06:21:54;;;;;;;14.88;5.07;;;;;;;20.59;39.22;98733.63;5074577;28;20395;-75
2022/09/16 06:24:20;;;;;;;10.27;4.78;;;;;;;20.49;40.11;98744.03;5075051;28;20127;-75
2022/09/16 06:26:48;;;;;;;9.68;4.97;;;;;;;20.42;39.98;98740.41;5057034;28;20585;-78
2022/09/16 06:29:15;;;;;;;12.10;5.03;;;;;;;20.37;40.32;98748.31;5073833;28;20036;-82
2022/09/16 06:31:42;;;;;;;12.98;4.68;;;;;;;20.41;40.01;98752.31;5073661;28;20044;-79
2022/09/16 06:34:13;;;;;;;11.20;4.20;;;;;;;20.27;39.78;98747.84;5073281;28;20135;-75
2022/09/16 06:36:39;;;;;;;8.45;4.70;;;;;;;20.20;40.13;98742.38;5040377;28;20044;-77
2022/09/16 06:39:05;;;;;;;10.73;4.85;;;;;;;20.13;40.35;98741.50;5056833;28;20052;-79
2022/09/16 06:41:33;;;;;;;12.27;5.25;;;;;;;19.89;41.33;98745.50;5073486;28;20040;-77
2022/09/16 06:43:59;;;;;;;8.98;4.30;;;;;;;19.79;41.32;98734.16;5057036;28;20453;-77
2022/09/16 06:46:27;;;;;;;13.63;4.53;;;;;;;20.03;40.79;98736.41;5072995;28;20047;-78
2022/09/16 06:48:55;;;;;;;9.45;4.60;;;;;;;20.18;41.52;98738.19;5073199;28;20450;-76
2022/09/16 06:51:24;;;;;;;7.47;3.92;;;;;;;20.12;40.58;98729.81;5056456;28;20052;-78
2022/09/16 06:53:55;;;;;;;10.32;4.00;;;;;;;20.12;40.35;98729.81;5056933;28;20067;-78
2022/09/16 06:56:21;;;;;;;11.23;3.80;;;;;;;19.96;40.56;98721.97;5074378;28;20458;-89
2022/09/16 06:58:51;;;;;;;11.63;3.53;;;;;;;20.12;40.67;98718.09;5039776;28;20033;-75
2022/09/16 07:01:27;;;;;;;6.63;3.17;;;;;;;20.02;39.69;98723.91;5074423;28;20040;-77
2022/09/16 07:03:53;;;;;;;6.15;2.65;;;;;;;20.08;38.50;98723.13;5072643;28;20049;-75
2022/09/16 07:06:21;;;;;;;6.43;1.90;;;;;;;20.02;37.49;98728.50;5073776;28;20045;-75
2022/09/16 07:08:48;;;;;;;6.43;2.22;;;;;;;20.05;37.67;98723.50;5075281;28;20127;-77
2022/09/16 07:11:18;;;;;;;6.88;2.08;;;;;;;20.15;37.43;98723.13;5055263;28;20483;-78
2022/09/16 07:13:46;;;;;;;3.60;2.55;;;;;;;20.17;37.56;98731.09;5082327;28;20085;-78
2022/09/16 07:16:15;;;;;;;7.60;2.65;;;;;;;20.10;37.31;98731.88;5056558;28;20041;-78
2022/09/16 07:18:42;;;;;;;3.28;2.33;;;;;;;20.03;37.58;98720.13;5055540;28;20048;-77
2022/09/16 07:21:11;;;;;;;3.20;2.30;;;;;;;20.06;37.79;98733.31;5073242;28;20487;-76
2022/09/16 07:23:38;;;;;;;5.82;2.25;;;;;;;20.03;37.70;98724.72;5038540;28;20143;-77
2022/09/16 07:26:08;;;;;;;6.53;2.30;;;;;;;20.29;37.62;98721.34;5054738;28;20040;-76
2022/09/16 07:28:34;;;;;;;10.63;2.88;;;;;;;20.44;37.39;98738.34;5073040;28;20065;-77
2022/09/16 07:31:01;;;;;;;3.35;2.15;;;;;;;20.68;36.71;98728.84;5071827;28;20068;-76
2022/09/16 07:33:32;;;;;;;2.88;2.50;;;;;;;20.44;36.88;98715.78;5055478;28;20052;-76
2022/09/16 07:35:59;;;;;;;7.85;3.33;;;;;;;20.58;36.84;98731.97;5073499;28;20407;-76
2022/09/16 07:38:26;;;;;;;7.85;2.92;;;;;;;20.84;36.70;98722.25;5071712;28;20036;-76
2022/09/16 07:40:52;;;;;;;10.82;2.80;;;;;;;20.68;37.11;98734.28;5072212;28;20052;-75
2022/09/16 07:43:18;;;;;;;6.85;2.67;;;;;;;20.73;36.85;98725.56;5055154;28;20044;-77
2022/09/16 07:45:44;;;;;;;6.55;2.55;;;;;;;20.64;36.59;98705.03;5054966;28;20059;-77
2022/09/16 07:48:10;;;;;;;7.40;2.40;;;;;;;20.49;37.28;98718.72;5072168;28;20109;-77
2022/09/16 07:50:35;;;;;;;12.93;2.78;;;;;;;20.60;37.11;98716.28;5050141;28;20404;-78
2022/09/16 07:53:02;;;;;;;6.30;2.40;;;;;;;20.46;37.10;98703.69;5064948;28;20135;-78
2022/09/16 07:55:27;;;;;;;4.72;2.53;;;;;;;20.74;37.02;98716.38;5047607;28;20090;-78
2022/09/16 07:57:53;;;;;;;5.82;2.40;;;;;;;20.88;36.65;98730.84;5084202;28;20050;-79
2022/09/16 08:00:20;;;;;;;6.32;2.20;;;;;;;20.51;37.00;98703.13;5079656;28;20127;-79
2022/09/16 08:02:46;;;;;;;5.53;2.35;;;;;;;20.69;36.83;98713.44;5078619;28;20098;-80
2022/09/16 08:05:12;;;;;;;4.80;2.15;;;;;;;21.06;36.42;98707.47;5080323;28;20056;-87
2022/09/16 08:07:38;;;;;;;3.90;2.40;;;;;;;21.09;36.18;98709.75;5038605;28;20101;-82
2022/09/16 08:10:04;;;;;;;5.30;2.60;;;;;;;20.68;36.00;98707.13;5071245;28;20036;-79
2022/09/16 08:12:32;;;;;;;3.90;1.80;;;;;;;20.90;36.30;98716.00;5072919;28;20469;-77
2022/09/16 08:14:59;;;;;;;5.15;1.88;;;;;;;21.38;34.77;98710.47;5072685;28;20134;-76
2022/09/16 08:17:25;;;;;;;3.38;1.75;;;;;;;21.92;34.12;98700.41;5037912;28;20040;-79
2022/09/16 08:19:51;;;;;;;3.78;1.90;;;;;;;22.33;33.32;98719.22;5072344;28;20068;-80
2022/09/16 08:22:17;;;;;;;4.50;1.90;;;;;;;22.63;32.20;98710.53;5071298;28;20080;-78
2022/09/16 08:24:43;;;;;;;3.38;1.80;;;;;;;22.94;31.34;98710.63;5073141;28;20052;-77
2022/09/16 08:27:09;;;;;;;2.90;1.40;;;;;;;22.80;31.66;98709.00;5073314;28;20128;-79
2022/09/16 08:29:35;;;;;;;3.50;1.38;;;;;;;22.82;31.11;98712.31;5075574;28;20070;-79
2022/09/16 08:32:01;;;;;;;1.30;1.23;;;;;;;22.94;30.83;98710.63;5080523;28;20072;-78
2022/09/16 08:34:27;;;;;;;4.05;1.50;;;;;;;22.97;31.01;98706.63;5070947;28;20043;-78
2022/09/16 08:36:53;;;;;;;5.22;1.73;;;;;;;23.32;31.04;98709.78;5071474;28;20044;-79
2022/09/16 08:39:20;;;;;;;4.45;1.90;;;;;;;23.50;31.01;98707.09;5037611;28;20094;-78
2022/09/16 08:42:01;;;;;;;4.38;1.98;;;;;;;23.73;30.51;98705.69;5054417;28;20541;-79
2022/09/16 08:44:39;;;;;;;2.67;2.03;;;;;;;23.55;30.27;98708.34;5071164;28;20110;-77
2022/09/16 08:47:37;;;;;;;2.60;1.77;;;;;;;23.42;30.83;98704.63;5071498;28;20056;-76
2022/09/16 08:50:09;;;;;;;3.13;1.77;;;;;;;23.50;31.19;98711.72;5053561;28;20080;-78
2022/09/16 08:52:37;;;;;;;4.55;1.70;;;;;;;23.66;30.72;98713.94;5054736;28;20048;-78
2022/09/16 08:55:03;;;;;;;2.63;1.40;;;;;;;23.45;30.68;98719.75;5054529;28;20400;-76
2022/09/16 08:57:35;;;;;;;2.13;1.50;;;;;;;23.46;30.73;98714.03;5084471;28;20149;-77
2022/09/16 09:00:07;;;;;;;1.75;1.55;;;;;;;23.55;30.44;98702.91;5091343;28;20032;-78
2022/09/16 09:02:45;;;;;;;2.78;1.50;;;;;;;23.20;30.47;98712.34;5069343;28;20040;-77
2022/09/16 09:05:16;;;;;;;1.70;1.58;;;;;;;22.90;31.38;98712.06;5096294;28;20070;-77
2022/09/16 09:08:06;;;;;;;1.30;1.20;;;;;;;23.18;30.97;98706.28;5073732;28;20177;-76
2022/09/16 09:10:58;;;;;;;1.50;1.40;;;;;;;23.41;30.73;98713.88;5057414;28;20045;-78
2022/09/16 09:13:36;;;;;;;1.98;1.50;;;;;;;23.51;30.86;98714.25;5075478;28;20090;-79
2022/09/16 09:16:08;;;;;;;4.55;1.70;;;;;;;23.08;31.30;98724.16;5063341;28;20044;-78
2022/09/16 09:19:19;;;;;;;1.80;1.70;;;;;;;22.73;31.67;98721.81;5074515;28;20044;-78
2022/09/16 09:22:13;;;;;;;1.83;1.50;;;;;;;22.47;32.38;98720.84;5075267;28;20074;-78
2022/09/16 09:24:56;;;;;;;5.13;1.80;;;;;;;22.55;32.16;98726.06;5074844;28;20578;-77
2022/09/16 09:27:30;;;;;;;2.10;1.60;;;;;;;22.50;32.49;98709.53;5074911;28;20431;-76
2022/09/16 09:30:07;;;;;;;2.05;1.85;;;;;;;22.33;33.08;98726.53;5058255;28;20045;-79
2022/09/16 09:33:04;;;;;;;5.40;1.70;;;;;;;22.10;33.04;98716.09;5075102;28;20049;-79
2022/09/16 09:36:02;;;;;;;2.63;1.90;;;;;;;22.03;33.55;98729.72;5090637;28;20036;-79
2022/09/16 09:38:38;;;;;;;7.07;1.95;;;;;;;22.04;33.79;98729.53;5096303;28;20109;-78
2022/09/16 09:41:15;;;;;;;3.05;2.10;;;;;;;21.94;35.77;98744.59;5094659;28;20130;-81
2022/09/16 09:43:48;;;;;;;7.38;2.00;;;;;;;21.60;37.32;98737.50;5061046;28;20036;-78
2022/09/16 09:46:28;;;;;;;3.15;1.90;;;;;;;21.64;37.87;98752.34;5085972;28;20503;-81
2022/09/16 09:49:06;;;;;;;3.70;1.90;;;;;;;21.43;37.98;98743.31;5075952;28;20040;-78
2022/09/16 09:51:37;;;;;;;5.97;2.00;;;;;;;21.35;38.08;98746.22;5041018;28;20086;-83
2022/09/16 09:54:25;;;;;;;2.45;1.80;;;;;;;21.42;38.21;98747.09;5075821;28;20052;-78
2022/09/16 09:56:58;;;;;;;4.65;2.10;;;;;;;21.51;37.40;98734.97;5041397;28;20557;-79
2022/09/16 09:59:47;;;;;;;5.38;2.20;;;;;;;21.48;37.09;98740.81;5075749;28;20086;-80
2022/09/16 10:02:16;;;;;;;1.88;1.77;;;;;;;21.25;37.04;98724.00;5074101;28;20097;-79
2022/09/16 10:04:43;;;;;;;2.78;1.98;;;;;;;21.28;37.12;98738.03;5074241;28;20071;-78
2022/09/16 10:07:12;;;;;;;3.78;2.28;;;;;;;21.44;36.96;98734.13;5075036;28;20113;-79
2022/09/16 10:09:55;;;;;;;7.95;2.10;;;;;;;21.64;37.22;98733.31;5074091;28;20492;-84
2022/09/16 10:12:29;;;;;;;4.82;2.33;;;;;;;21.76;36.95;98747.94;5074126;28;20036;-79
2022/09/16 10:14:55;;;;;;;3.38;2.10;;;;;;;21.70;36.64;98743.31;5042829;28;20136;-86
2022/09/16 10:17:21;;;;;;;1.80;1.70;;;;;;;21.61;36.92;98739.16;5060769;28;20047;-80
2022/09/16 10:20:00;;;;;;;5.25;1.98;;;;;;;21.61;37.45;98737.25;5062282;28;20043;-78
2022/09/16 10:22:30;;;;;;;1.75;1.65;;;;;;;21.63;36.80;98737.91;5077603;28;20050;-79
2022/09/16 10:25:02;;;;;;;2.65;2.10;;;;;;;21.61;37.14;98729.09;5060502;28;20047;-77
2022/09/16 10:27:34;;;;;;;3.10;2.10;;;;;;;21.93;36.63;98748.38;5076634;28;20089;-76
2022/09/16 10:30:17;;;;;;;4.00;2.00;;;;;;;21.92;36.54;98747.50;5065477;28;20040;-77
2022/09/16 10:33:00;;;;;;;3.72;1.90;;;;;;;21.68;37.04;98743.56;5095021;28;20052;-77
2022/09/16 10:35:32;;;;;;;2.40;2.20;;;;;;;22.02;36.51;98731.59;5095044;28;20043;-78
2022/09/16 10:38:17;;;;;;;4.10;1.98;;;;;;;22.26;36.33;98737.44;5044147;28;20040;-78
2022/09/16 10:41:25;;;;;;;3.63;1.90;;;;;;;22.25;36.67;98735.78;5094652;28;20051;-76
2022/09/16 10:43:59;;;;;;;2.40;2.17;;;;;;;22.18;36.44;98726.78;5081388;28;20044;-77
2022/09/16 10:46:27;;;;;;;2.53;2.15;;;;;;;22.16;36.50;98726.19;5093303;28;20039;-77
2022/09/16 10:48:59;;;;;;;3.47;2.33;;;;;;;22.36;36.54;98737.00;5059703;28;20044;-77
2022/09/16 10:51:30;;;;;;;4.00;2.45;;;;;;;22.05;36.73;98741.25;5076744;28;20475;-77
2022/09/16 10:53:59;;;;;;;3.10;2.70;;;;;;;21.97;36.92;98739.56;5059998;28;20052;-78
2022/09/16 10:56:31;;;;;;;2.40;2.20;;;;;;;22.19;36.87;98736.63;5059439;28;20040;-78
2022/09/16 10:59:08;;;;;;;7.90;2.88;;;;;;;22.26;37.19;98742.88;5076723;28;20134;-77
2022/09/16 11:01:46;;;;;;;4.80;3.22;;;;;;;22.43;36.44;98738.66;5077847;28;20139;-77
2022/09/16 11:04:32;;;;;;;5.73;3.07;;;;;;;22.54;36.17;98735.28;5072411;28;20131;-78
2022/09/16 11:07:10;;;;;;;3.10;2.50;;;;;;;22.41;36.38;98735.31;5074024;28;20316;-78
2022/09/16 11:09:42;;;;;;;5.33;2.83;;;;;;;22.26;36.68;98732.84;5073125;28;20082;-78
2022/09/16 11:12:21;;;;;;;5.82;2.67;;;;;;;22.05;37.29;98739.34;5072638;28;20952;-78
2022/09/16 11:15:22;;;;;;;2.38;2.17;;;;;;;21.57;38.20;98734.13;5055964;28;20067;-77
2022/09/16 11:18:03;;;;;;;5.15;2.35;;;;;;;21.73;37.72;98732.88;5111851;28;20039;-78
2022/09/16 11:20:47;;;;;;;3.85;2.70;;;;;;;21.72;37.76;98724.94;5074534;28;20287;-76
2022/09/16 11:23:19;;;;;;;5.32;3.03;;;;;;;21.58;37.92;98713.19;5072704;28;20395;-77
2022/09/16 11:26:23;;;;;;;4.07;2.78;;;;;;;21.45;37.85;98715.94;5071315;28;20036;-77
2022/09/16 11:29:09;;;;;;;4.00;2.90;;;;;;;21.22;38.31;98721.72;5072023;28;20044;-77
2022/09/16 11:31:49;;;;;;;4.47;3.15;;;;;;;21.23;38.36;98720.69;5079559;28;20136;-77
2022/09/16 11:34:31;;;;;;;3.90;3.20;;;;;;;21.29;38.67;98714.41;5072242;28;20121;-77
2022/09/16 11:37:16;;;;;;;9.20;4.38;;;;;;;21.32;38.42;98712.09;5055568;28;20044;-78
2022/09/16 11:39:53;;;;;;;11.07;4.65;;;;;;;21.33;38.67;98707.56;5055380;28;20044;-78
2022/09/16 11:42:30;;;;;;;8.95;5.13;;;;;;;21.26;38.87;98703.97;5055344;28;20053;-78
2022/09/16 11:45:23;;;;;;;10.25;6.07;;;;;;;21.16;39.42;98709.78;5072776;28;20048;-77
2022/09/16 11:48:02;;;;;;;10.70;6.03;;;;;;;21.03;39.87;98697.03;5073589;28;20093;-77
2022/09/16 11:50:51;;;;;;;10.00;5.90;;;;;;;20.93;40.28;98704.72;5038504;28;20040;-77
2022/09/16 11:53:49;;;;;;;10.30;5.95;;;;;;;20.84;40.69;98712.22;5072790;28;20061;-76
2022/09/16 11:56:59;;;;;;;18.77;6.38;;;;;;;20.48;40.93;98704.31;5082141;28;20049;-77
2022/09/16 11:59:39;;;;;;;12.20;6.88;;;;;;;20.51;41.17;98712.09;5038638;28;20040;-79